Time;durP1;ratioP1;P1;durP2;ratioP2;P2;SDS_P1;SDS_P2;PMS_P1;PMS_P2;Temp;Humidity;BMP_temperature;BMP_pressure;BME280_temperature;BME280_humidity;BME280_pressure;Samples;Min_cycle;Max_cycle;Signal;HPM_P1;HPM_P2
2023/09/26 00:00:58;;;;;;;10.45;6.03;;;;;;;-145.63;53.83;39266.75;5018507;28;20030;-67
2023/09/26 00:03:25;;;;;;;10.55;5.95;;;;;;;-145.63;53.53;39307.81;5020483;28;20068;-67
2023/09/26 00:05:52;;;;;;;9.45;6.00;;;;;;;-145.63;53.42;39255.00;5009316;28;20034;-68
2023/09/26 00:08:18;;;;;;;7.22;5.75;;;;;;;-145.63;53.25;39325.41;5026578;28;20049;-66
2023/09/26 00:10:46;;;;;;;10.43;6.35;;;;;;;-145.63;53.17;39278.47;5009275;28;20085;-68
2023/09/26 00:13:13;;;;;;;7.97;6.25;;;;;;;-145.63;53.42;39270.66;5007836;28;20069;-67
2023/09/26 00:15:40;;;;;;;8.05;6.18;;;;;;;-145.63;53.32;39264.78;5009966;28;20041;-68
2023/09/26 00:18:06;;;;;;;10.43;7.10;;;;;;;-145.63;53.34;39282.41;5019254;28;20025;-68
2023/09/26 00:20:35;;;;;;;7.80;6.05;;;;;;;-145.63;53.73;39284.34;5026555;28;20029;-68
2023/09/26 00:23:01;;;;;;;10.38;6.18;;;;;;;-145.63;53.67;39280.44;5010875;28;20219;-67
2023/09/26 00:25:27;;;;;;;10.25;6.20;;;;;;;-145.63;53.42;39284.34;5031354;28;20072;-66
2023/09/26 00:27:53;;;;;;;7.60;5.55;;;;;;;-145.63;53.77;39255.00;5026852;28;20312;-67
2023/09/26 00:30:20;;;;;;;8.27;5.72;;;;;;;-145.63;53.34;39300.00;5019232;28;20303;-67
2023/09/26 00:32:46;;;;;;;8.30;6.07;;;;;;;-145.63;53.65;39276.53;5006503;28;20030;-67
2023/09/26 00:35:12;;;;;;;9.07;6.10;;;;;;;-145.63;53.57;39253.06;5006371;28;20049;-68
2023/09/26 00:37:43;;;;;;;8.07;5.20;;;;;;;-145.63;53.75;39284.34;5022958;28;20101;-67
2023/09/26 00:40:15;;;;;;;8.57;6.28;;;;;;;-145.63;53.42;39290.22;5019882;28;20037;-66
2023/09/26 00:42:43;;;;;;;8.15;6.38;;;;;;;-145.63;54.00;39305.88;5017222;28;20467;-66
2023/09/26 00:45:09;;;;;;;9.77;5.90;;;;;;;-145.63;53.59;39288.25;5006593;28;20070;-67
2023/09/26 00:47:35;;;;;;;6.65;5.47;;;;;;;-145.63;53.08;39303.91;5006187;28;20033;-67
2023/09/26 00:50:07;;;;;;;9.43;6.18;;;;;;;-145.63;53.59;39339.13;5025767;28;20030;-68
2023/09/26 00:52:34;;;;;;;12.90;7.38;;;;;;;-145.63;53.21;39317.59;5010219;28;20022;-67
2023/09/26 00:55:03;;;;;;;10.85;6.05;;;;;;;-145.63;53.41;39376.28;5017443;28;20046;-68
2023/09/26 00:57:33;;;;;;;6.47;5.55;;;;;;;-145.63;53.11;39235.47;5025570;28;20333;-68
2023/09/26 01:00:01;;;;;;;8.27;5.88;;;;;;;-145.63;53.49;39268.72;5025699;28;20141;-68
2023/09/26 01:02:28;;;;;;;9.65;5.90;;;;;;;-145.63;53.17;39258.94;5045789;28;20088;-68
2023/09/26 01:04:54;;;;;;;9.27;6.30;;;;;;;-145.63;53.20;39284.34;5027179;28;20045;-68
2023/09/26 01:07:21;;;;;;;9.27;6.57;;;;;;;-145.63;53.82;39288.25;5011373;28;20041;-67
2023/09/26 01:09:48;;;;;;;8.45;6.47;;;;;;;-145.63;53.60;39294.13;5013848;28;20067;-65
2023/09/26 01:12:14;;;;;;;11.10;6.22;;;;;;;-145.63;53.76;39282.41;5020570;28;20034;-68
2023/09/26 01:14:40;;;;;;;8.65;6.07;;;;;;;-145.63;53.26;39282.41;5011491;28;20054;-67
2023/09/26 01:17:05;;;;;;;8.68;5.80;;;;;;;-145.63;53.50;39301.94;5015305;28;20219;-67
2023/09/26 01:19:31;;;;;;;6.90;5.75;;;;;;;-145.63;53.53;39288.25;5011427;28;20058;-67
2023/09/26 01:21:57;;;;;;;9.18;6.93;;;;;;;-145.63;53.97;39282.41;5016064;28;20025;-68
2023/09/26 01:24:23;;;;;;;7.15;6.40;;;;;;;-145.63;53.67;39288.25;5019503;28;20081;-68
2023/09/26 01:26:49;;;;;;;10.07;6.18;;;;;;;-145.63;53.43;39268.72;5006770;28;20239;-68
2023/09/26 01:29:15;;;;;;;9.98;6.38;;;;;;;-145.63;53.64;39309.78;5024920;28;20033;-67
2023/09/26 01:31:42;;;;;;;12.38;6.50;;;;;;;-145.63;53.68;39282.41;5008617;28;20061;-66
2023/09/26 01:34:08;;;;;;;9.43;6.18;;;;;;;-145.63;53.98;39301.94;5017131;28;20063;-65
2023/09/26 01:36:33;;;;;;;7.15;6.00;;;;;;;-145.63;53.99;39274.56;5017979;28;20255;-67
2023/09/26 01:38:59;;;;;;;9.52;6.43;;;;;;;-145.63;54.07;39307.81;5008033;28;20324;-67
2023/09/26 01:41:27;;;;;;;8.55;6.65;;;;;;;-145.63;53.89;39272.63;5024846;28;20026;-66
2023/09/26 01:43:53;;;;;;;8.00;6.30;;;;;;;-145.63;53.97;39300.00;5006924;28;20065;-66
2023/09/26 01:46:20;;;;;;;9.35;6.60;;;;;;;-145.63;53.75;39288.25;5004978;28;20038;-68
2023/09/26 01:48:46;;;;;;;9.18;7.28;;;;;;;-145.63;53.96;39284.34;5014019;28;20038;-67
2023/09/26 01:51:13;;;;;;;9.70;6.65;;;;;;;-145.63;53.61;39360.63;5020564;28;20101;-67
2023/09/26 01:53:39;;;;;;;9.85;6.82;;;;;;;-145.63;53.73;39276.53;5005146;28;20045;-67
2023/09/26 01:56:04;;;;;;;9.20;7.03;;;;;;;-145.63;53.91;39282.41;5024114;28;20022;-67
2023/09/26 01:58:31;;;;;;;7.85;6.47;;;;;;;-145.63;54.12;39292.19;5009910;28;20033;-66
2023/09/26 02:00:56;;;;;;;7.90;6.22;;;;;;;-145.63;53.46;39335.19;5013951;28;20034;-66
2023/09/26 02:03:22;;;;;;;9.57;6.97;;;;;;;-145.63;53.83;39309.78;5018807;28;20033;-67
2023/09/26 02:05:48;;;;;;;15.80;9.93;;;;;;;-145.63;53.98;39323.47;5004835;28;20188;-68
2023/09/26 02:08:16;;;;;;;12.93;7.70;;;;;;;-145.63;53.99;39313.69;5019827;28;20029;-67
2023/09/26 02:10:42;;;;;;;9.18;7.13;;;;;;;-145.63;54.17;39300.00;5022167;28;20096;-68
2023/09/26 02:13:08;;;;;;;10.13;6.80;;;;;;;-145.63;53.63;39321.50;5012984;28;20065;-68
2023/09/26 02:15:35;;;;;;;8.95;6.68;;;;;;;-145.63;54.01;39311.72;5016039;28;20029;-68
2023/09/26 02:18:02;;;;;;;10.43;6.90;;;;;;;-145.63;53.74;39313.69;5019433;28;20413;-68
2023/09/26 02:20:28;;;;;;;8.65;6.47;;;;;;;-145.63;53.74;39329.34;5017049;28;20060;-67
2023/09/26 02:22:54;;;;;;;7.00;6.28;;;;;;;-145.63;53.52;39313.69;5005877;28;20026;-67
2023/09/26 02:25:20;;;;;;;8.60;6.30;;;;;;;-145.63;53.84;39337.16;5004213;28;20023;-66
2023/09/26 02:27:48;;;;;;;7.53;6.25;;;;;;;-145.63;54.16;39429.06;5012927;28;20034;-67
2023/09/26 02:30:17;;;;;;;10.02;6.65;;;;;;;-145.63;54.56;39343.03;5019968;28;20088;-66
2023/09/26 02:32:43;;;;;;;11.57;6.05;;;;;;;-145.63;54.15;39313.69;5004346;28;20026;-67
2023/09/26 02:35:12;;;;;;;8.13;6.32;;;;;;;-145.63;53.62;39382.13;5023525;28;20022;-67
2023/09/26 02:37:39;;;;;;;7.82;6.13;;;;;;;-145.63;53.77;39346.94;5023779;28;20029;-69
2023/09/26 02:40:09;;;;;;;11.10;6.88;;;;;;;-145.63;53.80;39313.69;5023801;28;20029;-68
2023/09/26 02:42:40;;;;;;;11.77;7.03;;;;;;;-145.63;54.05;39296.09;5016964;28;20046;-67
2023/09/26 02:45:06;;;;;;;10.45;6.05;;;;;;;-145.63;53.97;39313.69;5004024;28;20357;-67
2023/09/26 02:47:32;;;;;;;9.68;6.20;;;;;;;-145.63;53.80;39301.94;5037885;28;20052;-67
2023/09/26 02:49:58;;;;;;;8.23;6.47;;;;;;;-145.63;53.97;39343.03;5025293;28;20029;-67
2023/09/26 02:52:25;;;;;;;8.25;6.00;;;;;;;-145.63;54.05;39329.34;5010136;28;20046;-67
2023/09/26 02:54:51;;;;;;;7.15;5.90;;;;;;;-145.63;53.86;39309.78;5012603;28;20042;-69
2023/09/26 02:57:18;;;;;;;8.55;6.85;;;;;;;-145.63;53.70;39350.84;5018597;28;20022;-68
2023/09/26 02:59:44;;;;;;;9.80;6.60;;;;;;;-145.63;53.74;39303.91;5023415;28;20265;-68
2023/09/26 03:02:13;;;;;;;10.35;6.75;;;;;;;-145.63;53.91;39333.25;5022606;28;20022;-68
2023/09/26 03:04:39;;;;;;;10.73;6.45;;;;;;;-145.63;53.78;39337.16;5019313;28;20357;-68
2023/09/26 03:07:04;;;;;;;9.32;6.90;;;;;;;-145.63;54.05;39317.59;5012884;28;20045;-68
2023/09/26 03:09:33;;;;;;;9.60;6.82;;;;;;;-145.63;53.97;39255.00;5013542;28;20028;-67
2023/09/26 03:11:58;;;;;;;10.27;6.32;;;;;;;-145.63;54.11;39337.16;5011652;28;20053;-67
2023/09/26 03:14:25;;;;;;;10.07;6.53;;;;;;;-145.63;53.57;39329.34;5003638;28;20317;-67
2023/09/26 03:16:51;;;;;;;9.43;6.18;;;;;;;-145.63;53.41;39333.25;5010925;28;20271;-67
2023/09/26 03:19:22;;;;;;;8.07;6.15;;;;;;;-145.63;54.04;39313.69;5011302;28;20049;-67
2023/09/26 03:21:49;;;;;;;9.35;6.55;;;;;;;-145.63;53.81;39329.34;5015243;28;20033;-68
2023/09/26 03:24:14;;;;;;;11.20;6.18;;;;;;;-145.63;53.65;39339.13;5007228;28;20421;-69
2023/09/26 03:26:40;;;;;;;11.00;6.60;;;;;;;-145.63;53.73;39323.47;5005132;28;20050;-67
2023/09/26 03:29:06;;;;;;;11.82;7.25;;;;;;;-145.63;53.71;39317.59;5022056;28;20032;-67
2023/09/26 03:31:31;;;;;;;13.77;6.90;;;;;;;-145.63;53.72;39333.25;5009097;28;20050;-67
2023/09/26 03:33:57;;;;;;;10.52;6.75;;;;;;;-145.63;53.86;39309.78;5014124;28;20364;-66
2023/09/26 03:36:22;;;;;;;9.40;7.65;;;;;;;-145.63;53.67;39290.22;5022555;28;20030;-67
2023/09/26 03:38:49;;;;;;;11.55;7.35;;;;;;;-145.63;53.86;39290.22;5007705;28;20407;-65
2023/09/26 03:41:15;;;;;;;9.50;7.25;;;;;;;-145.63;53.99;39301.94;5026764;28;20361;-67
2023/09/26 03:43:40;;;;;;;8.95;7.13;;;;;;;-145.63;53.99;39315.66;5027061;28;20038;-66
2023/09/26 03:46:08;;;;;;;10.15;7.28;;;;;;;-145.63;53.80;39348.88;5016432;28;20030;-66
2023/09/26 03:48:35;;;;;;;9.82;6.93;;;;;;;-145.63;54.18;39341.06;5007506;28;20030;-67
2023/09/26 03:51:11;;;;;;;9.65;7.30;;;;;;;-145.63;54.38;39317.59;5008717;28;20089;-66
2023/09/26 03:53:37;;;;;;;11.35;7.43;;;;;;;-145.63;54.45;39303.91;5026866;28;20033;-66
2023/09/26 03:56:04;;;;;;;11.07;7.43;;;;;;;-145.63;54.64;39311.72;5008590;28;20026;-66
2023/09/26 03:58:30;;;;;;;10.95;7.10;;;;;;;-145.63;54.35;39315.66;5020631;28;20037;-67
2023/09/26 04:01:13;;;;;;;12.90;7.45;;;;;;;-145.63;54.82;39323.47;5026715;28;20080;-67
2023/09/26 04:03:40;;;;;;;9.63;7.25;;;;;;;-145.63;54.64;39319.56;5020281;28;20034;-66
2023/09/26 04:06:06;;;;;;;9.95;7.25;;;;;;;-145.63;54.67;39301.94;5008916;28;20034;-66
2023/09/26 04:08:32;;;;;;;10.93;7.03;;;;;;;-145.63;55.16;39313.69;5026629;28;20103;-67
2023/09/26 04:10:58;;;;;;;12.27;7.78;;;;;;;-145.63;55.05;39305.88;5013856;28;20346;-67
2023/09/26 04:13:24;;;;;;;11.93;7.97;;;;;;;-145.63;54.82;39303.91;5019180;28;20110;-70
2023/09/26 04:15:50;;;;;;;10.32;7.32;;;;;;;-145.63;54.62;39290.22;5018670;28;20030;-69
2023/09/26 04:18:16;;;;;;;12.43;7.53;;;;;;;-145.63;54.99;39208.06;5023224;28;20084;-69
2023/09/26 04:20:43;;;;;;;14.88;7.32;;;;;;;-145.63;54.82;39309.78;5016130;28;20025;-67
2023/09/26 04:23:09;;;;;;;9.70;6.95;;;;;;;-145.63;54.97;39300.00;5007283;28;20076;-69
2023/09/26 04:25:35;;;;;;;11.32;8.10;;;;;;;-145.63;55.30;39329.34;5015587;28;20030;-68
2023/09/26 04:28:01;;;;;;;14.60;7.30;;;;;;;-145.63;54.85;39300.00;5008241;28;20072;-69
2023/09/26 04:30:27;;;;;;;10.27;7.47;;;;;;;-145.63;55.42;39321.50;5009712;28;20132;-70
2023/09/26 04:32:52;;;;;;;9.40;7.25;;;;;;;-145.63;55.02;39317.59;5025030;28;20195;-70
2023/09/26 04:35:18;;;;;;;11.25;7.20;;;;;;;-145.63;55.26;39325.41;5005197;28;20033;-70
2023/09/26 04:37:44;;;;;;;13.95;7.78;;;;;;;-145.63;54.86;39329.34;5017801;28;20378;-70
2023/09/26 04:40:11;;;;;;;15.32;7.45;;;;;;;-145.63;54.98;39301.94;5015707;28;20067;-69
2023/09/26 04:42:48;;;;;;;10.20;7.28;;;;;;;-145.63;55.01;39251.09;5019049;28;20109;-70
2023/09/26 04:45:14;;;;;;;8.95;6.93;;;;;;;-145.63;54.80;39305.88;5004669;28;20046;-69
2023/09/26 04:47:41;;;;;;;13.00;6.82;;;;;;;-145.63;55.37;39282.41;5012983;28;20111;-66
2023/09/26 04:50:07;;;;;;;12.43;7.43;;;;;;;-145.63;55.51;39317.59;5024709;28;20026;-67
2023/09/26 04:52:34;;;;;;;13.18;6.45;;;;;;;-145.63;55.26;39296.09;5011179;28;20097;-67
2023/09/26 04:55:00;;;;;;;11.73;7.25;;;;;;;-145.63;55.35;39311.72;5009472;28;20022;-67
2023/09/26 04:57:25;;;;;;;10.30;7.20;;;;;;;-145.63;55.57;39309.78;5009097;28;20250;-65
2023/09/26 04:59:51;;;;;;;13.82;7.13;;;;;;;-145.63;55.43;39286.31;5021525;28;20539;-67
2023/09/26 05:02:17;;;;;;;10.10;6.97;;;;;;;-145.63;55.70;39317.59;5022633;28;20056;-66
2023/09/26 05:04:45;;;;;;;10.18;7.20;;;;;;;-145.63;55.60;39311.72;5022836;28;20092;-66
2023/09/26 05:07:11;;;;;;;10.23;7.05;;;;;;;-145.63;55.23;39301.94;5024017;28;20025;-66
2023/09/26 05:09:37;;;;;;;11.73;7.70;;;;;;;-145.63;55.36;39298.03;5021977;28;20034;-67
2023/09/26 05:12:03;;;;;;;12.88;7.10;;;;;;;-145.63;55.65;39264.78;5023602;28;20026;-66
2023/09/26 05:14:29;;;;;;;10.52;7.38;;;;;;;-145.63;55.31;39423.22;5023794;28;20063;-66
2023/09/26 05:16:55;;;;;;;13.68;7.45;;;;;;;-145.63;55.10;39388.00;5015401;28;20053;-67
2023/09/26 05:19:21;;;;;;;12.30;8.07;;;;;;;-145.63;55.37;39276.53;5008006;28;20163;-65
2023/09/26 05:21:46;;;;;;;12.93;7.88;;;;;;;-145.63;55.64;39270.66;5013350;28;20336;-63
2023/09/26 05:24:12;;;;;;;12.43;7.75;;;;;;;-145.63;55.17;39272.63;5012208;28;20394;-64
2023/09/26 05:26:38;;;;;;;10.93;8.15;;;;;;;-145.63;54.80;39274.56;4981117;28;1252053;-66
2023/09/26 05:29:03;;;;;;;12.98;9.15;;;;;;;-145.63;55.16;39157.22;5007804;28;20033;-63
2023/09/26 05:31:30;;;;;;;13.35;8.38;;;;;;;-145.63;54.71;39264.78;5018092;28;20104;-63
2023/09/26 05:33:56;;;;;;;11.95;8.55;;;;;;;-145.63;54.50;39274.56;5018595;28;20120;-64
2023/09/26 05:36:22;;;;;;;13.02;8.82;;;;;;;-145.63;55.09;39262.84;5024660;28;20089;-64
2023/09/26 05:38:48;;;;;;;16.27;8.98;;;;;;;-145.63;54.50;39284.34;5024965;28;20037;-64
2023/09/26 05:41:13;;;;;;;14.80;8.13;;;;;;;-145.63;54.45;39255.00;5024471;28;20022;-65
2023/09/26 05:43:39;;;;;;;9.27;7.68;;;;;;;-145.63;53.82;39079.00;5011113;28;20034;-64
2023/09/26 05:46:05;;;;;;;10.25;7.82;;;;;;;-145.63;54.36;39231.53;5005099;28;20223;-62
2023/09/26 05:48:30;;;;;;;11.18;7.80;;;;;;;-145.63;53.40;39239.38;5009841;28;20030;-63
2023/09/26 05:51:00;;;;;;;11.07;8.60;;;;;;;-145.63;52.39;39229.59;5024787;28;20032;-65
2023/09/26 05:53:26;;;;;;;12.38;8.18;;;;;;;-145.63;52.16;39206.13;5004817;28;20042;-66
2023/09/26 05:55:52;;;;;;;11.40;7.88;;;;;;;-145.63;52.70;39165.06;5020123;28;20022;-65
2023/09/26 05:58:19;;;;;;;11.57;6.90;;;;;;;-145.63;52.42;39219.81;5013250;28;20113;-65
2023/09/26 06:00:46;;;;;;;8.50;7.25;;;;;;;-145.63;51.88;39208.06;5012594;28;20164;-63
2023/09/26 06:03:15;;;;;;;9.95;6.25;;;;;;;-145.63;51.62;39194.38;5022034;28;20065;-65
2023/09/26 06:05:43;;;;;;;7.15;6.22;;;;;;;-145.63;51.09;39223.72;5005117;28;20057;-66
2023/09/26 06:08:08;;;;;;;10.27;7.00;;;;;;;-145.63;51.03;39145.50;5021218;28;20025;-65
2023/09/26 06:10:34;;;;;;;7.15;6.18;;;;;;;-145.63;49.78;39073.13;5018744;28;20036;-66
2023/09/26 06:13:00;;;;;;;12.85;7.05;;;;;;;-145.63;49.82;39137.69;5014963;28;20038;-67
2023/09/26 06:15:26;;;;;;;8.80;6.70;;;;;;;-145.63;49.06;39122.03;5007903;28;20036;-66
2023/09/26 06:18:02;;;;;;;12.52;6.50;;;;;;;-145.63;49.13;39120.06;5024219;28;20334;-67
2023/09/26 06:20:28;;;;;;;9.35;6.82;;;;;;;-145.63;48.52;39106.38;5003401;28;20085;-66
2023/09/26 06:22:57;;;;;;;10.93;7.07;;;;;;;-145.63;48.33;39174.84;5015758;28;20018;-66
2023/09/26 06:25:23;;;;;;;8.63;6.95;;;;;;;-145.63;48.58;39110.28;5003259;28;20022;-67
2023/09/26 06:27:51;;;;;;;15.50;7.80;;;;;;;-145.63;48.67;39131.81;5011263;28;20045;-65
2023/09/26 06:30:17;;;;;;;9.90;7.88;;;;;;;-145.63;48.46;39114.22;5021811;28;20092;-66
2023/09/26 06:32:43;;;;;;;11.50;7.70;;;;;;;-145.63;48.35;39114.22;5004543;28;20026;-65
2023/09/26 06:35:10;;;;;;;8.40;7.32;;;;;;;-145.63;48.87;39037.94;5021554;28;20021;-67
2023/09/26 06:37:35;;;;;;;8.77;7.22;;;;;;;-145.63;47.46;39028.16;5015456;28;20049;-65
2023/09/26 06:40:04;;;;;;;10.77;7.88;;;;;;;-145.63;46.20;38971.44;5035258;28;20021;-68
2023/09/26 06:42:33;;;;;;;13.77;8.32;;;;;;;-145.63;45.51;38961.66;5019900;28;20090;-65
2023/09/26 06:45:00;;;;;;;9.77;7.15;;;;;;;-145.63;45.01;38942.13;5028212;28;20070;-66
2023/09/26 06:47:26;;;;;;;9.13;7.10;;;;;;;-145.63;44.87;38938.19;5023519;28;20083;-66
2023/09/26 06:49:53;;;;;;;12.05;7.18;;;;;;;-145.63;44.12;38928.44;5031347;28;20057;-67
2023/09/26 06:52:20;;;;;;;10.73;7.15;;;;;;;-145.63;44.56;38910.81;5031594;28;20487;-67
2023/09/26 06:54:45;;;;;;;12.00;7.75;;;;;;;-145.63;43.97;38924.50;5017741;28;20026;-66
2023/09/26 06:57:15;;;;;;;9.00;7.40;;;;;;;-145.63;44.02;38977.31;5026461;28;20348;-67
2023/09/26 06:59:41;;;;;;;25.77;9.80;;;;;;;-145.63;44.15;38938.19;5023515;28;20322;-66
2023/09/26 07:02:08;;;;;;;8.38;7.40;;;;;;;-145.63;44.10;38914.72;5042213;28;20056;-66
2023/09/26 07:04:34;;;;;;;12.25;6.78;;;;;;;-145.63;44.16;38965.56;5030852;28;20348;-66
2023/09/26 07:07:00;;;;;;;8.52;7.00;;;;;;;-145.63;43.96;38953.84;5023166;28;20033;-66
2023/09/26 07:09:26;;;;;;;9.88;6.80;;;;;;;-145.63;43.45;38965.56;5019913;28;20038;-67
2023/09/26 07:11:52;;;;;;;11.23;6.78;;;;;;;-145.63;43.76;38965.56;5003906;28;20314;-66
2023/09/26 07:14:18;;;;;;;9.85;7.07;;;;;;;-145.63;43.16;39000.78;5021567;28;20345;-66
2023/09/26 07:16:46;;;;;;;11.15;5.93;;;;;;;-145.63;43.76;38969.50;5023208;28;20042;-66
2023/09/26 07:19:13;;;;;;;5.13;4.38;;;;;;;-145.63;43.36;39002.72;5013443;28;20034;-66
2023/09/26 07:21:38;;;;;;;8.40;4.30;;;;;;;-145.63;43.15;39012.50;5008099;28;20124;-67
2023/09/26 07:24:05;;;;;;;4.28;3.28;;;;;;;-145.63;43.14;38961.66;5022838;28;20026;-66
2023/09/26 07:26:32;;;;;;;4.32;3.92;;;;;;;-145.63;42.47;38959.72;5023963;28;20067;-65
2023/09/26 07:28:57;;;;;;;6.03;3.78;;;;;;;-145.63;42.79;38985.13;5027382;28;20033;-66
2023/09/26 07:31:23;;;;;;;8.32;3.75;;;;;;;-145.63;41.50;38961.66;5012252;28;20026;-66
2023/09/26 07:33:50;;;;;;;6.63;3.75;;;;;;;-145.63;42.35;38991.00;5009637;28;20344;-67
2023/09/26 07:36:15;;;;;;;9.80;3.13;;;;;;;-145.63;42.33;39010.56;5021591;28;20032;-67
2023/09/26 07:38:41;;;;;;;5.28;3.70;;;;;;;-145.63;41.99;38977.31;5003540;28;20026;-65
2023/09/26 07:41:07;;;;;;;5.20;3.03;;;;;;;-145.63;42.51;39012.50;5019838;28;20013;-66
2023/09/26 07:43:33;;;;;;;4.93;2.95;;;;;;;-145.63;42.22;38969.50;5011187;28;20030;-66
2023/09/26 07:46:07;;;;;;;6.63;3.00;;;;;;;-145.63;41.55;38981.22;5013749;28;20229;-65
2023/09/26 07:48:34;;;;;;;8.88;3.50;;;;;;;-145.63;42.67;38963.63;5039053;28;20029;-66
2023/09/26 07:51:00;;;;;;;7.10;3.42;;;;;;;-145.63;41.73;39006.66;5022752;28;20052;-66
2023/09/26 07:53:25;;;;;;;7.82;3.63;;;;;;;-145.63;41.84;38973.41;5024419;28;20246;-66
2023/09/26 07:55:51;;;;;;;5.78;3.47;;;;;;;-145.63;41.90;38961.66;5019663;28;20026;-66
2023/09/26 07:58:17;;;;;;;6.47;3.90;;;;;;;-145.63;42.12;38965.56;5013306;28;20077;-66
2023/09/26 08:00:43;;;;;;;4.38;3.33;;;;;;;-145.63;41.22;38992.97;5012989;28;20036;-66
2023/09/26 08:03:10;;;;;;;6.25;3.28;;;;;;;-145.63;41.63;38953.84;5022337;28;20373;-66
2023/09/26 08:05:35;;;;;;;5.07;3.17;;;;;;;-145.63;41.64;38928.44;5007385;28;20030;-66
2023/09/26 08:08:04;;;;;;;9.32;3.67;;;;;;;-145.63;41.47;38940.16;5027382;28;20076;-65
2023/09/26 08:10:37;;;;;;;6.45;4.70;;;;;;;-145.63;41.99;38961.66;5014815;28;20026;-66
2023/09/26 08:13:05;;;;;;;5.78;3.22;;;;;;;-145.63;42.36;38930.38;5027312;28;20181;-65
2023/09/26 08:15:31;;;;;;;6.25;3.38;;;;;;;-145.63;41.75;38959.72;4985436;28;20073;-67
2023/09/26 08:17:57;;;;;;;5.60;4.10;;;;;;;-145.63;41.74;38914.72;5003379;28;20053;-66
2023/09/26 08:20:24;;;;;;;7.00;3.70;;;;;;;-145.63;41.20;38924.50;5023038;28;20037;-66
2023/09/26 08:22:50;;;;;;;7.45;4.90;;;;;;;-145.63;41.09;38910.81;5013151;28;20089;-66
2023/09/26 08:25:16;;;;;;;6.40;3.50;;;;;;;-145.63;41.08;38875.63;5015720;28;20034;-66
2023/09/26 08:27:41;;;;;;;3.72;2.85;;;;;;;-145.63;39.54;38906.91;5010654;28;20574;-66
2023/09/26 08:30:08;;;;;;;3.35;2.58;;;;;;;-145.63;39.13;38895.19;5006814;28;20045;-65
2023/09/26 08:32:34;;;;;;;5.53;3.35;;;;;;;-145.63;38.69;38906.91;5006831;28;20031;-66
2023/09/26 08:35:00;;;;;;;3.90;3.10;;;;;;;-145.63;39.07;38873.66;5021697;28;20025;-66
2023/09/26 08:37:25;;;;;;;4.60;3.45;;;;;;;-145.63;39.10;38836.50;5015220;28;20030;-65
2023/09/26 08:39:51;;;;;;;5.93;2.95;;;;;;;-145.63;38.18;38805.22;5033025;28;20030;-66
2023/09/26 08:42:27;;;;;;;5.95;3.78;;;;;;;-145.63;37.59;38586.22;5024920;28;20045;-66
2023/09/26 08:44:57;;;;;;;6.50;4.57;;;;;;;-145.63;37.48;38789.59;5006411;28;20303;-69
2023/09/26 08:47:24;;;;;;;5.70;4.25;;;;;;;-145.63;37.20;38770.03;5040500;28;20029;-66
2023/09/26 08:49:54;;;;;;;5.43;4.43;;;;;;;-145.63;36.16;38752.44;5030375;28;20033;-66
2023/09/26 08:52:26;;;;;;;5.72;3.70;;;;;;;-145.63;35.68;38734.81;5015862;28;20034;-66
2023/09/26 08:54:51;;;;;;;5.72;4.18;;;;;;;-145.63;35.21;38660.53;5025551;28;20049;-66
2023/09/26 08:57:19;;;;;;;6.43;4.05;;;;;;;-145.63;35.04;38625.31;5024449;28;20033;-65
2023/09/26 08:59:51;;;;;;;9.10;4.70;;;;;;;-145.63;35.21;38640.97;5025611;28;20148;-66
2023/09/26 09:02:16;;;;;;;7.43;4.80;;;;;;;-145.63;34.89;38617.50;5036423;28;20049;-66
2023/09/26 09:04:44;;;;;;;6.65;4.13;;;;;;;-145.63;34.06;38539.28;5019372;28;20176;-66
2023/09/26 09:07:13;;;;;;;14.02;4.47;;;;;;;-145.63;33.28;38670.28;5027167;28;20030;-66
2023/09/26 09:10:12;;;;;;;7.20;4.40;;;;;;;-145.63;33.55;38594.03;5020570;28;20033;-66
2023/09/26 09:12:42;;;;;;;7.57;4.05;;;;;;;-145.63;34.23;38537.34;5009683;28;20056;-66
2023/09/26 09:15:14;;;;;;;6.38;4.30;;;;;;;-145.63;31.92;38531.47;5025059;28;20038;-67
2023/09/26 09:17:40;;;;;;;;;;;;;;;-145.63;31.26;38574.47;5006481;28;20041;-67
2023/09/26 09:20:07;;;;;;;7.00;4.38;;;;;;;-145.63;32.93;38703.53;5021227;28;19905;-66
2023/09/26 09:22:33;;;;;;;4.93;3.67;;;;;;;-145.63;33.56;38601.84;5014373;28;20072;-65
2023/09/26 09:24:59;;;;;;;6.82;3.75;;;;;;;-145.63;31.83;38566.66;5011684;28;20026;-67
2023/09/26 09:27:31;;;;;;;8.75;3.88;;;;;;;-145.63;32.69;38533.41;5026106;28;20049;-65
2023/09/26 09:30:07;;;;;;;4.88;3.30;;;;;;;-145.63;32.15;38650.75;5018117;28;20038;-66
2023/09/26 09:32:34;;;;;;;5.53;3.50;;;;;;;-145.63;33.76;38609.69;5004152;28;20056;-67
2023/09/26 09:35:01;;;;;;;6.57;4.15;;;;;;;-145.63;34.27;38648.78;5019894;28;20049;-66
2023/09/26 09:37:29;;;;;;;6.95;3.80;;;;;;;-145.63;34.38;38644.88;5014612;28;20030;-67
2023/09/26 09:39:55;;;;;;;7.90;4.22;;;;;;;-145.63;33.44;38689.84;5014411;28;20029;-67
2023/09/26 09:42:22;;;;;;;5.32;3.75;;;;;;;-145.63;34.45;38697.69;5014477;28;20089;-67
2023/09/26 09:44:48;;;;;;;5.63;4.50;;;;;;;-145.63;34.83;38676.16;5013640;28;20068;-67
2023/09/26 09:47:24;;;;;;;6.72;4.10;;;;;;;-145.63;33.25;38793.50;5027555;28;20030;-66
2023/09/26 09:49:51;;;;;;;5.60;4.03;;;;;;;-145.63;34.88;38740.69;5016064;28;20563;-66
2023/09/26 09:52:21;;;;;;;9.05;4.53;;;;;;;-145.63;34.55;38674.22;5016069;28;20094;-65
2023/09/26 09:54:50;;;;;;;6.97;3.97;;;;;;;-145.63;35.28;38684.00;5005830;28;20022;-64
2023/09/26 09:57:17;;;;;;;7.88;4.05;;;;;;;-145.63;34.62;38717.22;5033117;28;20242;-66
2023/09/26 09:59:47;;;;;;;8.82;4.20;;;;;;;-145.63;34.05;38707.44;5024497;28;20160;-67
2023/09/26 10:02:17;;;;;;;7.80;4.15;;;;;;;-145.63;34.06;38680.06;5026582;28;20326;-65
2023/09/26 10:04:44;;;;;;;6.07;3.20;;;;;;;-145.63;35.19;38695.72;5007549;28;20054;-66
2023/09/26 10:07:15;;;;;;;4.85;3.25;;;;;;;-145.63;33.69;38783.72;5027731;28;20056;-66
2023/09/26 10:09:42;;;;;;;4.72;3.75;;;;;;;-145.63;34.34;38705.50;5020450;28;20088;-67
2023/09/26 10:12:10;;;;;;;5.15;3.95;;;;;;;-145.63;34.03;38717.22;5021524;28;20032;-66
2023/09/26 10:14:36;;;;;;;6.82;3.67;;;;;;;-145.63;33.62;38711.38;5021185;28;20034;-67
2023/09/26 10:17:04;;;;;;;5.72;3.80;;;;;;;-145.63;33.66;38738.75;5018246;28;20029;-66
2023/09/26 10:19:31;;;;;;;6.38;3.80;;;;;;;-145.63;33.44;38738.75;5020129;28;20034;-66
2023/09/26 10:22:31;;;;;;;6.00;3.58;;;;;;;-145.63;33.23;38709.41;5022642;28;20207;-65
2023/09/26 10:25:00;;;;;;;7.72;4.03;;;;;;;-145.63;32.82;38742.66;5021410;28;20022;-66
2023/09/26 10:27:31;;;;;;;10.18;4.03;;;;;;;-145.63;33.35;38687.91;5023032;28;20050;-67
2023/09/26 10:29:58;;;;;;;8.35;3.83;;;;;;;-145.63;33.23;38750.47;5015971;28;20227;-64
2023/09/26 10:32:33;;;;;;;6.05;3.90;;;;;;;-145.63;32.32;38760.25;5023273;28;20068;-66
2023/09/26 10:34:59;;;;;;;6.93;3.90;;;;;;;-145.63;33.23;38746.56;5019360;28;20030;-65
2023/09/26 10:37:28;;;;;;;6.03;4.35;;;;;;;-145.63;33.30;38719.19;5022710;28;20026;-66
2023/09/26 10:39:54;;;;;;;8.05;4.47;;;;;;;-145.63;33.62;38734.81;5023678;28;20213;-66
2023/09/26 10:42:23;;;;;;;5.97;4.00;;;;;;;-145.63;33.71;38723.09;5022223;28;20029;-65
2023/09/26 10:44:50;;;;;;;6.60;4.72;;;;;;;-145.63;32.96;38721.13;5015053;28;20226;-65
2023/09/26 10:47:21;;;;;;;6.97;4.60;;;;;;;-145.63;33.37;38773.94;4999658;28;20018;-65
2023/09/26 10:49:47;;;;;;;6.85;4.72;;;;;;;-145.63;33.17;38711.38;5021065;28;20040;-65
2023/09/26 10:52:14;;;;;;;6.82;4.50;;;;;;;-145.63;32.83;38695.72;5022562;28;20089;-66
2023/09/26 10:54:41;;;;;;;9.38;4.13;;;;;;;-145.63;32.68;38719.19;5021947;28;20061;-66
2023/09/26 10:57:15;;;;;;;10.15;4.80;;;;;;;-145.63;32.84;38660.53;5018817;28;20049;-65
2023/09/26 10:59:41;;;;;;;6.60;3.90;;;;;;;-145.63;33.68;38711.38;5021433;28;20372;-67
2023/09/26 11:02:06;;;;;;;8.63;4.70;;;;;;;-145.63;32.76;38715.28;5025103;28;20105;-66
2023/09/26 11:04:34;;;;;;;9.13;4.53;;;;;;;-145.63;32.70;38754.38;5018505;28;20018;-64
2023/09/26 11:07:02;;;;;;;8.00;4.30;;;;;;;-145.63;33.31;38738.75;5020752;28;20025;-65
2023/09/26 11:09:29;;;;;;;5.93;4.35;;;;;;;-145.63;32.37;38764.16;5019268;28;21114;-66
2023/09/26 11:11:56;;;;;;;5.22;4.25;;;;;;;-145.63;33.59;38756.34;5016586;28;20077;-66
2023/09/26 11:14:23;;;;;;;8.35;4.80;;;;;;;-145.63;32.07;38758.28;5021032;28;20101;-66